Time;durP1;ratioP1;P1;durP2;ratioP2;P2;SDS_P1;SDS_P2;PMS_P1;PMS_P2;Temp;Humidity;BMP_temperature;BMP_pressure;BME280_temperature;BME280_humidity;BME280_pressure;Samples;Min_cycle;Max_cycle;Signal;HPM_P1;HPM_P2
2023/06/22 00:01:57;;;;;;;6.53;5.93;;;;;;;;;;5008605;28;20186;-78
2023/06/22 00:04:23;;;;;;;7.33;6.20;;;;;;;;;;5041213;28;20174;-78
2023/06/22 00:06:49;;;;;;;7.33;6.10;;;;;;;;;;5033602;28;20194;-78
2023/06/22 00:09:15;;;;;;;6.63;5.80;;;;;;;;;;5045322;28;20183;-78
2023/06/22 00:11:41;;;;;;;7.30;5.90;;;;;;;;;;5050158;28;20190;-78
2023/06/22 00:14:07;;;;;;;5.87;5.37;;;;;;;;;;5051042;28;20198;-78
2023/06/22 00:16:34;;;;;;;6.37;5.77;;;;;;;;;;5045691;28;20182;-78
2023/06/22 00:19:00;;;;;;;5.33;4.83;;;;;;;;;;5045522;28;20211;-78
2023/06/22 00:21:27;;;;;;;5.90;5.03;;;;;;;;;;5044416;28;20875;-78
2023/06/22 00:23:53;;;;;;;6.23;5.63;;;;;;;;;;5046348;28;20205;-78
2023/06/22 00:26:20;;;;;;;6.97;5.80;;;;;;;;;;5030103;28;20191;-78
2023/06/22 00:28:46;;;;;;;7.23;6.37;;;;;;;;;;5042618;28;20181;-78
2023/06/22 00:31:13;;;;;;;6.80;6.10;;;;;;;;;;5035520;28;20289;-78
2023/06/22 00:33:39;;;;;;;6.30;5.70;;;;;;;;;;5020174;28;20207;-78
2023/06/22 00:36:07;;;;;;;5.70;5.20;;;;;;;;;;5041645;28;20221;-78
2023/06/22 00:38:34;;;;;;;6.10;5.50;;;;;;;;;;5023621;28;20190;-78
2023/06/22 00:41:01;;;;;;;5.60;5.10;;;;;;;;;;5036543;28;20222;-78
2023/06/22 00:43:27;;;;;;;5.80;4.90;;;;;;;;;;5034215;28;20200;-78
2023/06/22 00:45:56;;;;;;;5.33;4.83;;;;;;;;;;5045102;28;20182;-78
2023/06/22 00:48:22;;;;;;;5.93;5.33;;;;;;;;;;5038761;28;20269;-78
2023/06/22 00:50:51;;;;;;;5.80;5.30;;;;;;;;;;5025549;28;20252;-78
2023/06/22 00:53:18;;;;;;;7.83;6.83;;;;;;;;;;5043763;28;20217;-78
2023/06/22 00:55:46;;;;;;;8.97;8.07;;;;;;;;;;5028499;28;20215;-78
2023/06/22 00:58:13;;;;;;;8.80;8.00;;;;;;;;;;5023318;28;20537;-78
2023/06/22 01:00:41;;;;;;;9.23;8.33;;;;;;;;;;5035303;28;20286;-78
2023/06/22 01:03:10;;;;;;;8.40;7.13;;;;;;;;;;5042187;28;20280;-78
2023/06/22 01:05:37;;;;;;;9.13;8.33;;;;;;;;;;5036742;28;20179;-78
2023/06/22 01:08:06;;;;;;;15.57;8.70;;;;;;;;;;5037642;28;20184;-78
2023/06/22 01:10:54;;;;;;;10.93;9.20;;;;;;;;;;5038607;28;20235;-78
2023/06/22 01:13:26;;;;;;;12.70;9.00;;;;;;;;;;5035911;28;20198;-78
2023/06/22 01:15:56;;;;;;;9.03;8.23;;;;;;;;;;5036971;28;20241;-78
2023/06/22 01:18:25;;;;;;;11.10;9.63;;;;;;;;;;5036383;28;20209;-78
2023/06/22 01:20:53;;;;;;;10.80;9.70;;;;;;;;;;5034280;28;20205;-78
2023/06/22 01:23:27;;;;;;;11.13;10.03;;;;;;;;;;5033020;28;20226;-78
2023/06/22 01:26:00;;;;;;;13.80;9.83;;;;;;;;;;5034198;28;20232;-78
2023/06/22 01:28:32;;;;;;;10.73;9.00;;;;;;;;;;5040827;28;20586;-78
2023/06/22 01:31:05;;;;;;;9.73;8.83;;;;;;;;;;5036239;28;20281;-78
2023/06/22 01:33:33;;;;;;;10.40;9.10;;;;;;;;;;5034274;28;20206;-78
2023/06/22 01:36:00;;;;;;;8.43;7.73;;;;;;;;;;5039800;28;20201;-78
2023/06/22 01:38:27;;;;;;;9.13;8.23;;;;;;;;;;5041351;28;20218;-78
2023/06/22 01:40:53;;;;;;;9.33;8.50;;;;;;;;;;5038019;28;20209;-78
2023/06/22 01:43:22;;;;;;;9.20;8.40;;;;;;;;;;5038748;28;20216;-78
2023/06/22 01:45:49;;;;;;;9.03;8.20;;;;;;;;;;5026256;28;20249;-78
2023/06/22 01:48:15;;;;;;;8.90;8.10;;;;;;;;;;5038801;28;20221;-78
2023/06/22 01:50:42;;;;;;;8.37;7.67;;;;;;;;;;5038378;28;20190;-78
2023/06/22 01:53:08;;;;;;;9.17;8.30;;;;;;;;;;5040827;28;20676;-78
2023/06/22 01:55:34;;;;;;;9.53;8.63;;;;;;;;;;5039387;28;20186;-78
2023/06/22 01:58:00;;;;;;;9.00;8.10;;;;;;;;;;5037202;28;20194;-78
2023/06/22 02:00:27;;;;;;;9.23;8.33;;;;;;;;;;5037607;28;20210;-78
2023/06/22 02:03:02;;;;;;;9.47;8.67;;;;;;;;;;5037755;28;20285;-78
2023/06/22 02:05:32;;;;;;;9.57;8.60;;;;;;;;;;5038687;28;20197;-78
2023/06/22 02:08:09;;;;;;;9.83;8.30;;;;;;;;;;5040170;28;20186;-78
2023/06/22 02:10:36;;;;;;;8.90;8.10;;;;;;;;;;5040294;28;20186;-78
2023/06/22 02:13:06;;;;;;;9.27;8.40;;;;;;;;;;5035263;28;20202;-78
2023/06/22 02:15:33;;;;;;;9.17;8.27;;;;;;;;;;5033604;28;20190;-78
2023/06/22 02:18:00;;;;;;;8.60;7.80;;;;;;;;;;5039848;28;20205;-78
2023/06/22 02:20:26;;;;;;;9.07;8.27;;;;;;;;;;5048456;28;20213;-78
2023/06/22 02:22:52;;;;;;;9.20;8.23;;;;;;;;;;5043060;28;20213;-78
2023/06/22 02:25:19;;;;;;;9.23;8.33;;;;;;;;;;5036023;28;20193;-78
2023/06/22 02:27:46;;;;;;;9.10;8.20;;;;;;;;;;5031221;28;20618;-78
2023/06/22 02:30:12;;;;;;;8.13;7.33;;;;;;;;;;5049418;28;20558;-78
2023/06/22 02:32:42;;;;;;;8.27;7.43;;;;;;;;;;5034718;28;20755;-78
2023/06/22 02:35:11;;;;;;;8.47;7.60;;;;;;;;;;5050266;28;20178;-78
2023/06/22 02:37:44;;;;;;;7.73;7.03;;;;;;;;;;5050037;28;20646;-78
2023/06/22 02:40:10;;;;;;;9.50;8.03;;;;;;;;;;5045308;28;20303;-78
2023/06/22 02:42:37;;;;;;;8.30;7.50;;;;;;;;;;5047167;28;20202;-78
2023/06/22 02:45:04;;;;;;;8.93;8.03;;;;;;;;;;5033350;28;20178;-78
2023/06/22 02:47:30;;;;;;;8.50;7.70;;;;;;;;;;5024631;28;20269;-78
2023/06/22 02:49:56;;;;;;;11.10;8.00;;;;;;;;;;5051943;28;20232;-78
2023/06/22 02:52:23;;;;;;;10.33;8.30;;;;;;;;;;5042279;28;20202;-78
2023/06/22 02:54:49;;;;;;;8.17;7.33;;;;;;;;;;5031955;28;20227;-78
2023/06/22 02:57:15;;;;;;;10.03;9.03;;;;;;;;;;5031276;28;20239;-78
2023/06/22 02:59:43;;;;;;;8.90;8.00;;;;;;;;;;5040478;28;20202;-78
2023/06/22 03:02:11;;;;;;;8.93;8.03;;;;;;;;;;5042412;28;20182;-78
2023/06/22 03:04:38;;;;;;;8.27;7.50;;;;;;;;;;5048513;28;20170;-78
2023/06/22 03:07:04;;;;;;;8.17;7.40;;;;;;;;;;5044673;28;20214;-78
2023/06/22 03:09:32;;;;;;;8.33;7.50;;;;;;;;;;5033091;28;20179;-78
2023/06/22 03:11:58;;;;;;;8.10;7.30;;;;;;;;;;5049207;28;20712;-78
2023/06/22 03:14:30;;;;;;;8.80;7.90;;;;;;;;;;5036427;28;20662;-78
2023/06/22 03:17:01;;;;;;;8.97;8.17;;;;;;;;;;5046150;28;20181;-78
2023/06/22 03:19:29;;;;;;;8.77;7.97;;;;;;;;;;5036394;28;20199;-78
2023/06/22 03:21:56;;;;;;;8.33;7.53;;;;;;;;;;5018263;28;20737;-78
2023/06/22 03:24:22;;;;;;;8.10;7.40;;;;;;;;;;5030974;28;20307;-78
2023/06/22 03:26:48;;;;;;;8.63;7.80;;;;;;;;;;5036538;28;20214;-78
2023/06/22 03:29:15;;;;;;;8.10;7.33;;;;;;;;;;5038497;28;20182;-78
2023/06/22 03:31:42;;;;;;;8.63;7.83;;;;;;;;;;5034643;28;20279;-78
2023/06/22 03:34:09;;;;;;;8.63;7.83;;;;;;;;;;5026149;28;20632;-78
2023/06/22 03:36:35;;;;;;;8.07;7.37;;;;;;;;;;5027243;28;20270;-78
2023/06/22 03:39:02;;;;;;;8.17;7.37;;;;;;;;;;5036418;28;20196;-78
2023/06/22 03:41:28;;;;;;;8.37;7.57;;;;;;;;;;5024825;28;20550;-78
2023/06/22 03:43:54;;;;;;;8.07;7.27;;;;;;;;;;5036958;28;20201;-78
2023/06/22 03:46:21;;;;;;;7.20;6.60;;;;;;;;;;5035878;28;20207;-78
2023/06/22 03:48:47;;;;;;;8.00;7.30;;;;;;;;;;5041790;28;20268;-78
2023/06/22 03:51:13;;;;;;;7.63;6.93;;;;;;;;;;5043708;28;20240;-78
2023/06/22 03:53:39;;;;;;;8.20;7.40;;;;;;;;;;5036085;28;20234;-78
2023/06/22 03:56:06;;;;;;;7.07;6.37;;;;;;;;;;5034678;28;20187;-78
2023/06/22 03:58:32;;;;;;;7.73;6.93;;;;;;;;;;5033853;28;20198;-78
2023/06/22 04:00:59;;;;;;;7.97;7.27;;;;;;;;;;5039032;28;20210;-78
2023/06/22 04:03:26;;;;;;;8.20;7.47;;;;;;;;;;5015025;28;20215;-78
2023/06/22 04:05:52;;;;;;;8.10;7.30;;;;;;;;;;5035243;28;20184;-78
2023/06/22 04:08:18;;;;;;;8.57;7.57;;;;;;;;;;5041744;28;20213;-78
2023/06/22 04:10:44;;;;;;;8.30;7.50;;;;;;;;;;5036393;28;20190;-78
2023/06/22 04:13:11;;;;;;;8.43;7.50;;;;;;;;;;5032059;28;20304;-78
2023/06/22 04:15:37;;;;;;;8.20;7.40;;;;;;;;;;5029181;28;20240;-78
2023/06/22 04:18:03;;;;;;;8.10;7.30;;;;;;;;;;5025466;28;20213;-78
2023/06/22 04:20:29;;;;;;;8.20;7.40;;;;;;;;;;5033745;28;20260;-78
2023/06/22 04:22:55;;;;;;;7.40;6.80;;;;;;;;;;5034927;28;20673;-78
2023/06/22 04:25:22;;;;;;;11.17;7.50;;;;;;;;;;5035714;28;20178;-78
2023/06/22 04:27:48;;;;;;;9.03;7.53;;;;;;;;;;5045396;28;20264;-77
2023/06/22 04:30:16;;;;;;;9.40;8.40;;;;;;;;;;5037201;28;20212;-78
2023/06/22 04:32:42;;;;;;;8.97;8.17;;;;;;;;;;5045545;28;20206;-78
2023/06/22 04:35:08;;;;;;;8.80;8.00;;;;;;;;;;5044046;28;20186;-78
2023/06/22 04:37:34;;;;;;;9.27;8.37;;;;;;;;;;5043544;28;20177;-71
2023/06/22 04:40:00;;;;;;;10.67;8.07;;;;;;;;;;5039058;28;20214;-74
2023/06/22 04:42:27;;;;;;;8.70;7.80;;;;;;;;;;5037832;28;20201;-77
2023/06/22 04:44:53;;;;;;;8.97;8.10;;;;;;;;;;5035102;28;20182;-73
2023/06/22 04:47:20;;;;;;;8.40;7.70;;;;;;;;;;5043149;28;20699;-73
2023/06/22 04:49:46;;;;;;;7.97;7.17;;;;;;;;;;5040702;28;20210;-73
2023/06/22 04:52:13;;;;;;;9.00;7.43;;;;;;;;;;5046612;28;20184;-74
2023/06/22 04:54:47;;;;;;;9.13;7.87;;;;;;;;;;5057678;28;20185;-73
2023/06/22 04:57:14;;;;;;;8.20;7.50;;;;;;;;;;5043057;28;20694;-73
2023/06/22 04:59:41;;;;;;;9.37;8.03;;;;;;;;;;5034177;28;20186;-73
2023/06/22 05:02:08;;;;;;;10.90;8.87;;;;;;;;;;5039236;28;20178;-74
2023/06/22 05:04:40;;;;;;;12.30;10.23;;;;;;;;;;5045441;28;20317;-74
2023/06/22 05:07:07;;;;;;;9.50;8.60;;;;;;;;;;5045061;28;20212;-73
2023/06/22 05:09:35;;;;;;;10.87;9.60;;;;;;;;;;5039975;28;20182;-74
2023/06/22 05:12:02;;;;;;;10.13;9.13;;;;;;;;;;5032410;28;20190;-73
2023/06/22 05:14:30;;;;;;;11.73;9.27;;;;;;;;;;5048397;28;20291;-73
2023/06/22 05:16:58;;;;;;;11.10;8.90;;;;;;;;;;5048656;28;20183;-73
2023/06/22 05:19:25;;;;;;;9.57;8.33;;;;;;;;;;5048339;28;20589;-73
2023/06/22 05:21:51;;;;;;;9.93;8.93;;;;;;;;;;5050522;28;20701;-73
2023/06/22 05:24:17;;;;;;;10.77;9.67;;;;;;;;;;5041691;28;20767;-73
2023/06/22 05:26:43;;;;;;;11.37;8.27;;;;;;;;;;5036843;28;20182;-73
2023/06/22 05:29:09;;;;;;;10.07;9.07;;;;;;;;;;5038619;28;20650;-73
2023/06/22 05:31:36;;;;;;;9.30;8.40;;;;;;;;;;5018848;28;20197;-75
2023/06/22 05:34:02;;;;;;;10.57;9.47;;;;;;;;;;5037792;28;20303;-74
2023/06/22 05:36:28;;;;;;;11.47;9.23;;;;;;;;;;5036656;28;20186;-74
2023/06/22 05:38:54;;;;;;;11.37;8.20;;;;;;;;;;5043481;28;20669;-75
2023/06/22 05:41:20;;;;;;;11.53;8.90;;;;;;;;;;5037097;28;20207;-75
2023/06/22 05:43:46;;;;;;;10.80;8.57;;;;;;;;;;5036573;28;20233;-75
2023/06/22 05:46:12;;;;;;;11.90;8.80;;;;;;;;;;5040003;28;20235;-73
2023/06/22 05:48:39;;;;;;;12.43;8.33;;;;;;;;;;5038039;28;20182;-72
2023/06/22 05:51:05;;;;;;;11.33;8.30;;;;;;;;;;5036337;28;20182;-77
2023/06/22 05:53:31;;;;;;;13.07;9.13;;;;;;;;;;5036595;28;20206;-73
2023/06/22 05:55:57;;;;;;;11.37;8.53;;;;;;;;;;5039896;28;20236;-72
2023/06/22 05:58:23;;;;;;;10.50;7.63;;;;;;;;;;5047475;28;20210;-74
2023/06/22 06:00:49;;;;;;;10.43;7.87;;;;;;;;;;5044368;28;20217;-70
2023/06/22 06:03:16;;;;;;;9.67;7.67;;;;;;;;;;5033440;28;20209;-71
2023/06/22 06:05:43;;;;;;;9.03;7.77;;;;;;;;;;5038747;28;20509;-71
2023/06/22 06:08:11;;;;;;;9.93;8.00;;;;;;;;;;5039478;28;20719;-71
2023/06/22 06:10:37;;;;;;;9.23;7.70;;;;;;;;;;5037813;28;20240;-72
2023/06/22 06:13:04;;;;;;;8.47;7.47;;;;;;;;;;5049172;28;20361;-74
2023/06/22 06:15:30;;;;;;;8.63;7.63;;;;;;;;;;5040194;28;20197;-71
2023/06/22 06:17:57;;;;;;;10.13;7.90;;;;;;;;;;5042254;28;20637;-72
2023/06/22 06:20:24;;;;;;;7.80;7.10;;;;;;;;;;5044923;28;20209;-71
2023/06/22 06:22:50;;;;;;;8.43;7.63;;;;;;;;;;5040762;28;20198;-72
2023/06/22 06:25:18;;;;;;;8.80;7.10;;;;;;;;;;5052903;28;20209;-73
2023/06/22 06:27:44;;;;;;;7.77;6.97;;;;;;;;;;5040611;28;20175;-71
2023/06/22 06:30:11;;;;;;;8.13;6.80;;;;;;;;;;5052999;28;20190;-71
2023/06/22 06:32:38;;;;;;;9.20;7.70;;;;;;;;;;5034217;28;20297;-72
2023/06/22 06:35:05;;;;;;;7.90;7.20;;;;;;;;;;5033832;28;20263;-72
2023/06/22 06:37:32;;;;;;;9.90;7.50;;;;;;;;;;5033958;28;20668;-71
2023/06/22 06:39:58;;;;;;;8.20;7.40;;;;;;;;;;5042135;28;20200;-72
2023/06/22 06:42:24;;;;;;;8.27;7.40;;;;;;;;;;5053420;28;20185;-72
2023/06/22 06:44:50;;;;;;;8.70;7.73;;;;;;;;;;5041411;28;20182;-73
2023/06/22 06:47:16;;;;;;;8.10;7.30;;;;;;;;;;5045791;28;20178;-73
2023/06/22 06:49:44;;;;;;;7.87;7.13;;;;;;;;;;5053874;28;20181;-72
2023/06/22 06:52:14;;;;;;;7.73;6.97;;;;;;;;;;5050757;28;20627;-71
2023/06/22 06:54:41;;;;;;;7.70;7.03;;;;;;;;;;5026199;28;20179;-72
2023/06/22 06:57:10;;;;;;;7.80;7.07;;;;;;;;;;5050138;28;20795;-72
2023/06/22 06:59:36;;;;;;;7.33;6.57;;;;;;;;;;5046674;28;20201;-71
2023/06/22 07:02:02;;;;;;;7.30;6.60;;;;;;;;;;5052083;28;20212;-71
2023/06/22 07:04:28;;;;;;;8.40;7.60;;;;;;;;;;5052891;28;20180;-72
2023/06/22 07:06:55;;;;;;;7.87;7.07;;;;;;;;;;5046886;28;20648;-72
2023/06/22 07:09:21;;;;;;;8.93;7.07;;;;;;;;;;5053052;28;20226;-72
2023/06/22 07:11:47;;;;;;;8.17;7.33;;;;;;;;;;5050138;28;20661;-72
2023/06/22 07:14:13;;;;;;;7.73;7.03;;;;;;;;;;5045742;28;20204;-73
2023/06/22 07:16:39;;;;;;;7.40;6.70;;;;;;;;;;5040961;28;20194;-72
2023/06/22 07:19:05;;;;;;;7.13;6.47;;;;;;;;;;5037824;28;20346;-72
2023/06/22 07:21:31;;;;;;;7.63;6.93;;;;;;;;;;5051036;28;20669;-73
2023/06/22 07:23:57;;;;;;;9.23;7.43;;;;;;;;;;5051775;28;20213;-72
2023/06/22 07:26:24;;;;;;;8.73;7.30;;;;;;;;;;5052582;28;20186;-72
2023/06/22 07:28:50;;;;;;;8.23;7.13;;;;;;;;;;5050892;28;20220;-72
2023/06/22 07:31:16;;;;;;;7.90;7.13;;;;;;;;;;5044245;28;20228;-71
2023/06/22 07:33:42;;;;;;;8.10;7.30;;;;;;;;;;5049201;28;20246;-71
2023/06/22 07:36:09;;;;;;;9.23;7.57;;;;;;;;;;5052226;28;20189;-72
2023/06/22 07:38:35;;;;;;;8.63;7.33;;;;;;;;;;5032885;28;20217;-71
2023/06/22 07:41:02;;;;;;;9.00;7.07;;;;;;;;;;5033955;28;20210;-70
2023/06/22 07:43:29;;;;;;;7.80;7.13;;;;;;;;;;5048609;28;20214;-72
2023/06/22 07:45:56;;;;;;;7.90;7.07;;;;;;;;;;5052136;28;20247;-72
2023/06/22 07:48:22;;;;;;;7.40;6.70;;;;;;;;;;5051078;28;20170;-72
2023/06/22 07:50:48;;;;;;;8.80;6.80;;;;;;;;;;5046297;28;20296;-72
2023/06/22 07:53:14;;;;;;;7.80;6.97;;;;;;;;;;5050812;28;20200;-72
2023/06/22 07:55:40;;;;;;;7.57;6.67;;;;;;;;;;5052172;28;20201;-72
2023/06/22 07:58:06;;;;;;;9.63;6.90;;;;;;;;;;5046866;28;20549;-73
2023/06/22 08:00:34;;;;;;;7.10;6.40;;;;;;;;;;5048918;28;20202;-71
2023/06/22 08:03:03;;;;;;;7.60;6.67;;;;;;;;;;5044871;28;20250;-74
2023/06/22 08:05:30;;;;;;;7.10;6.40;;;;;;;;;;5044405;28;20185;-72
2023/06/22 08:07:56;;;;;;;7.00;6.30;;;;;;;;;;5051418;28;20204;-72
2023/06/22 08:10:22;;;;;;;7.83;6.60;;;;;;;;;;5052133;28;20181;-71
2023/06/22 08:12:48;;;;;;;7.57;6.50;;;;;;;;;;5050866;28;20496;-72
2023/06/22 08:15:14;;;;;;;6.90;6.30;;;;;;;;;;5051153;28;20181;-73
2023/06/22 08:17:40;;;;;;;7.87;6.33;;;;;;;;;;5051847;28;20200;-74
2023/06/22 08:20:11;;;;;;;6.97;6.27;;;;;;;;;;5051830;28;20290;-73
2023/06/22 08:22:38;;;;;;;7.40;6.60;;;;;;;;;;5045569;28;20211;-75
2023/06/22 08:25:05;;;;;;;7.30;6.60;;;;;;;;;;5051337;28;20200;-73
2023/06/22 08:27:35;;;;;;;6.90;6.30;;;;;;;;;;5050497;28;20178;-74
2023/06/22 08:30:01;;;;;;;6.73;6.13;;;;;;;;;;5051565;28;20183;-73
2023/06/22 08:32:29;;;;;;;7.03;6.20;;;;;;;;;;5046941;28;20328;-73
2023/06/22 08:34:56;;;;;;;8.87;6.37;;;;;;;;;;5049898;28;20208;-74
2023/06/22 08:37:30;;;;;;;7.33;6.63;;;;;;;;;;5045968;28;20264;-73
2023/06/22 08:40:00;;;;;;;7.53;6.73;;;;;;;;;;5050146;28;20305;-73
2023/06/22 08:42:27;;;;;;;6.87;6.20;;;;;;;;;;5039179;28;20574;-73
2023/06/22 08:44:53;;;;;;;8.73;6.33;;;;;;;;;;5038880;28;20186;-73
2023/06/22 08:47:21;;;;;;;6.77;6.17;;;;;;;;;;5031148;28;20657;-74
2023/06/22 08:49:47;;;;;;;6.50;5.90;;;;;;;;;;5045697;28;20194;-73
2023/06/22 08:52:13;;;;;;;7.37;6.67;;;;;;;;;;5051358;28;20186;-73
2023/06/22 08:54:39;;;;;;;6.20;5.60;;;;;;;;;;5050931;28;20316;-73
2023/06/22 08:57:06;;;;;;;6.77;6.03;;;;;;;;;;5047964;28;20821;-73
2023/06/22 08:59:32;;;;;;;6.63;5.90;;;;;;;;;;5038502;28;20202;-74
2023/06/22 09:01:59;;;;;;;6.93;6.23;;;;;;;;;;5048834;28;20218;-74
2023/06/22 09:04:25;;;;;;;7.10;6.40;;;;;;;;;;5032680;28;20938;-73
2023/06/22 09:06:52;;;;;;;6.73;5.70;;;;;;;;;;5048692;28;20182;-73
2023/06/22 09:09:18;;;;;;;6.50;5.90;;;;;;;;;;5031109;28;20697;-73
2023/06/22 09:11:45;;;;;;;6.40;5.80;;;;;;;;;;5031272;28;20186;-74
2023/06/22 09:14:11;;;;;;;6.63;5.90;;;;;;;;;;5034623;28;20241;-74
2023/06/22 09:16:37;;;;;;;5.80;5.30;;;;;;;;;;5045332;28;20190;-73
2023/06/22 09:19:03;;;;;;;6.57;5.97;;;;;;;;;;5051105;28;20178;-73
2023/06/22 09:21:30;;;;;;;6.67;6.07;;;;;;;;;;5041692;28;20524;-74
2023/06/22 09:23:56;;;;;;;7.20;5.87;;;;;;;;;;5048670;28;20242;-73
2023/06/22 09:26:23;;;;;;;7.00;6.20;;;;;;;;;;5050569;28;20688;-73
2023/06/22 09:28:50;;;;;;;6.47;5.87;;;;;;;;;;5036920;28;20179;-73
2023/06/22 09:31:16;;;;;;;8.47;6.20;;;;;;;;;;5045393;28;20182;-73
2023/06/22 09:33:43;;;;;;;7.27;5.80;;;;;;;;;;5041028;28;20211;-73
2023/06/22 09:36:09;;;;;;;6.57;5.93;;;;;;;;;;5038130;28;20195;-73
2023/06/22 09:38:38;;;;;;;6.70;5.90;;;;;;;;;;5050618;28;20185;-73
2023/06/22 09:41:04;;;;;;;6.63;5.90;;;;;;;;;;5040896;28;20252;-73
2023/06/22 09:43:32;;;;;;;6.43;5.83;;;;;;;;;;5030549;28;20561;-73
2023/06/22 09:45:58;;;;;;;6.30;5.60;;;;;;;;;;5029987;28;20179;-73
2023/06/22 09:48:24;;;;;;;10.53;5.87;;;;;;;;;;5047442;28;20210;-73
2023/06/22 09:50:50;;;;;;;6.37;5.77;;;;;;;;;;5047193;28;20184;-73
2023/06/22 09:53:17;;;;;;;7.63;5.97;;;;;;;;;;5031246;28;20208;-73
2023/06/22 09:55:43;;;;;;;7.67;5.70;;;;;;;;;;5034153;28;20180;-73
2023/06/22 09:58:10;;;;;;;8.67;5.83;;;;;;;;;;5035070;28;20674;-74
2023/06/22 10:00:36;;;;;;;5.57;4.90;;;;;;;;;;5043885;28;20211;-74
2023/06/22 10:03:02;;;;;;;6.20;5.30;;;;;;;;;;5045160;28;20195;-73
2023/06/22 10:05:28;;;;;;;8.23;5.30;;;;;;;;;;5035508;28;20203;-78
2023/06/22 10:07:54;;;;;;;6.80;5.60;;;;;;;;;;5048056;28;20236;-78
2023/06/22 10:10:20;;;;;;;9.57;5.30;;;;;;;;;;5051199;28;20194;-75
2023/06/22 10:12:48;;;;;;;6.43;5.07;;;;;;;;;;5055016;28;20239;-78
2023/06/22 10:15:15;;;;;;;7.67;5.53;;;;;;;;;;5049176;28;20184;-77
2023/06/22 10:17:41;;;;;;;10.80;5.70;;;;;;;;;;5047696;28;20214;-77
2023/06/22 10:20:11;;;;;;;11.30;6.20;;;;;;;;;;5054494;28;20728;-76
2023/06/22 10:22:41;;;;;;;8.10;5.60;;;;;;;;;;5068248;28;20257;-76
2023/06/22 10:25:08;;;;;;;10.13;5.70;;;;;;;;;;5051937;28;20178;-75
2023/06/22 10:27:34;;;;;;;10.37;5.63;;;;;;;;;;5055798;28;20190;-76
2023/06/22 10:30:00;;;;;;;7.73;5.70;;;;;;;;;;5064873;28;20173;-76
2023/06/22 10:32:28;;;;;;;6.63;5.57;;;;;;;;;;5047363;28;20206;-76
2023/06/22 10:34:54;;;;;;;7.40;5.63;;;;;;;;;;5046133;28;20182;-76
2023/06/22 10:37:21;;;;;;;9.03;5.63;;;;;;;;;;5042756;28;20178;-75
2023/06/22 10:39:47;;;;;;;9.53;5.53;;;;;;;;;;5053726;28;20213;-75
2023/06/22 10:42:13;;;;;;;6.27;5.67;;;;;;;;;;5053395;28;20216;-75
2023/06/22 10:44:41;;;;;;;9.10;5.57;;;;;;;;;;5049929;28;20204;-75
2023/06/22 10:47:07;;;;;;;9.20;5.47;;;;;;;;;;5044846;28;20216;-75
2023/06/22 10:49:33;;;;;;;6.70;5.20;;;;;;;;;;5048355;28;20188;-75
2023/06/22 10:51:59;;;;;;;9.20;5.87;;;;;;;;;;5047440;28;20201;-76
2023/06/22 10:54:25;;;;;;;7.53;5.57;;;;;;;;;;5048410;28;20271;-76
2023/06/22 10:56:51;;;;;;;8.03;5.77;;;;;;;;;;5035104;28;20183;-76
2023/06/22 10:59:18;;;;;;;8.43;5.73;;;;;;;;;;5033472;28;20238;-76
2023/06/22 11:01:44;;;;;;;8.43;5.30;;;;;;;;;;5040369;28;20781;-76
2023/06/22 11:04:10;;;;;;;9.80;6.20;;;;;;;;;;5045506;28;20197;-76
2023/06/22 11:06:36;;;;;;;7.77;5.47;;;;;;;;;;5041079;28;20270;-76
2023/06/22 11:09:03;;;;;;;8.80;5.53;;;;;;;;;;5049064;28;20199;-76
2023/06/22 11:11:29;;;;;;;7.20;5.10;;;;;;;;;;5051728;28;20192;-76
2023/06/22 11:13:55;;;;;;;9.57;6.03;;;;;;;;;;5048524;28;20227;-76
2023/06/22 11:16:21;;;;;;;8.27;6.10;;;;;;;;;;5039304;28;20614;-76
2023/06/22 11:18:48;;;;;;;11.40;5.90;;;;;;;;;;5046944;28;20193;-76
2023/06/22 11:21:14;;;;;;;10.73;6.20;;;;;;;;;;5040103;28;20227;-77
2023/06/22 11:23:40;;;;;;;9.37;5.93;;;;;;;;;;5045897;28;20264;-76
2023/06/22 11:26:06;;;;;;;9.00;5.73;;;;;;;;;;5047601;28;20185;-75
2023/06/22 11:28:32;;;;;;;9.13;5.63;;;;;;;;;;5045050;28;20178;-74
2023/06/22 11:30:58;;;;;;;8.57;5.77;;;;;;;;;;5032678;28;20189;-75
2023/06/22 11:33:25;;;;;;;8.87;5.60;;;;;;;;;;5051764;28;20217;-75
2023/06/22 11:35:51;;;;;;;8.37;5.27;;;;;;;;;;5052257;28;20189;-74
2023/06/22 11:38:17;;;;;;;7.77;5.50;;;;;;;;;;5052774;28;20196;-74
2023/06/22 11:40:43;;;;;;;8.07;5.90;;;;;;;;;;5052335;28;20221;-77
2023/06/22 11:43:09;;;;;;;9.03;5.93;;;;;;;;;;5049566;28;20197;-80
2023/06/22 11:45:35;;;;;;;10.23;6.13;;;;;;;;;;5050974;28;20185;-75
2023/06/22 11:48:01;;;;;;;8.67;5.77;;;;;;;;;;5052715;28;20258;-77
2023/06/22 11:50:29;;;;;;;8.03;5.53;;;;;;;;;;5037231;28;20188;-75
2023/06/22 11:52:56;;;;;;;9.97;6.30;;;;;;;;;;5032571;28;20289;-80
2023/06/22 11:55:22;;;;;;;8.87;5.70;;;;;;;;;;5041724;28;20609;-79
2023/06/22 11:58:00;;;;;;;7.80;5.43;;;;;;;;;;5052332;28;20204;-79
2023/06/22 12:00:26;;;;;;;7.53;6.30;;;;;;;;;;5035367;28;20230;-78
2023/06/22 12:02:53;;;;;;;8.67;5.80;;;;;;;;;;5031278;28;20226;-78
2023/06/22 12:05:24;;;;;;;9.27;5.93;;;;;;;;;;5033062;28;20252;-78
2023/06/22 12:07:50;;;;;;;9.43;5.63;;;;;;;;;;5053165;28;20177;-79
2023/06/22 12:10:16;;;;;;;7.03;5.63;;;;;;;;;;5056476;28;20178;-79
2023/06/22 12:12:42;;;;;;;9.00;5.83;;;;;;;;;;5047838;28;20592;-79
2023/06/22 12:15:10;;;;;;;7.67;6.13;;;;;;;;;;5055238;28;20185;-79
2023/06/22 12:17:36;;;;;;;9.97;5.60;;;;;;;;;;5053544;28;20177;-78
2023/06/22 12:20:05;;;;;;;6.43;5.40;;;;;;;;;;5051937;28;20276;-79
2023/06/22 12:22:34;;;;;;;7.83;5.57;;;;;;;;;;5053386;28;20274;-79
2023/06/22 12:25:00;;;;;;;6.80;5.63;;;;;;;;;;5055239;28;20277;-79
2023/06/22 12:27:27;;;;;;;6.37;5.23;;;;;;;;;;5037809;28;20278;-79
2023/06/22 12:29:53;;;;;;;6.60;5.40;;;;;;;;;;5054585;28;20193;-80
2023/06/22 12:32:19;;;;;;;9.00;5.80;;;;;;;;;;5052534;28;20193;-79
2023/06/22 12:34:45;;;;;;;6.33;5.50;;;;;;;;;;5054622;28;20190;-79
2023/06/22 12:37:11;;;;;;;7.67;5.60;;;;;;;;;;5056107;28;20182;-79
2023/06/22 12:39:37;;;;;;;9.17;6.10;;;;;;;;;;5056452;28;20204;-79
2023/06/22 12:42:03;;;;;;;9.63;5.70;;;;;;;;;;5056189;28;20236;-79
2023/06/22 12:44:29;;;;;;;7.53;5.20;;;;;;;;;;5039170;28;20228;-79
2023/06/22 12:46:56;;;;;;;8.57;5.27;;;;;;;;;;5055516;28;20190;-80
2023/06/22 12:49:22;;;;;;;6.13;5.10;;;;;;;;;;5038088;28;20191;-79
2023/06/22 12:51:48;;;;;;;7.60;4.93;;;;;;;;;;5055767;28;20192;-79
2023/06/22 12:54:14;;;;;;;6.77;4.80;;;;;;;;;;5052933;28;20203;-79
2023/06/22 12:56:40;;;;;;;8.10;4.90;;;;;;;;;;5055118;28;20269;-79
2023/06/22 12:59:06;;;;;;;7.57;4.93;;;;;;;;;;5050847;28;20197;-79
2023/06/22 13:01:32;;;;;;;8.10;4.37;;;;;;;;;;5055574;28;20210;-79
2023/06/22 13:03:59;;;;;;;8.20;4.60;;;;;;;;;;5037027;28;20201;-79
2023/06/22 13:06:25;;;;;;;11.47;5.10;;;;;;;;;;5049096;28;20281;-79
2023/06/22 13:08:51;;;;;;;9.63;5.27;;;;;;;;;;5042980;28;20646;-79
2023/06/22 13:11:18;;;;;;;8.63;4.70;;;;;;;;;;5052022;28;20667;-79
2023/06/22 13:13:45;;;;;;;10.50;5.00;;;;;;;;;;5055014;28;20291;-79
2023/06/22 13:16:11;;;;;;;6.80;4.80;;;;;;;;;;5053842;28;20195;-79
2023/06/22 13:18:37;;;;;;;6.97;4.90;;;;;;;;;;5040264;28;20672;-79
2023/06/22 13:21:04;;;;;;;9.67;5.00;;;;;;;;;;5038896;28;20219;-79
2023/06/22 13:23:30;;;;;;;6.93;5.10;;;;;;;;;;5053554;28;20200;-78
2023/06/22 13:25:56;;;;;;;7.97;4.80;;;;;;;;;;5044983;28;20652;-78
2023/06/22 13:28:22;;;;;;;7.43;4.73;;;;;;;;;;5035033;28;20178;-80
2023/06/22 13:30:48;;;;;;;9.17;4.87;;;;;;;;;;5037521;28;20214;-79
2023/06/22 13:33:14;;;;;;;7.63;4.93;;;;;;;;;;5041934;28;20210;-79
2023/06/22 13:35:44;;;;;;;8.13;4.87;;;;;;;;;;5054895;28;20186;-79
2023/06/22 13:38:10;;;;;;;9.80;4.57;;;;;;;;;;5044872;28;20277;-79
2023/06/22 13:40:37;;;;;;;8.17;4.50;;;;;;;;;;5054835;28;20619;-79
2023/06/22 13:43:04;;;;;;;8.48;4.53;;;;;;;;;;5055514;28;20203;-79
2023/06/22 13:45:30;;;;;;;8.83;5.00;;;;;;;;;;5055301;28;20184;-79
2023/06/22 13:47:56;;;;;;;5.88;4.50;;;;;;;;;;5037225;28;20199;-79
2023/06/22 13:50:23;;;;;;;7.47;5.28;;;;;;;;;;5053136;28;20242;-79
2023/06/22 13:52:49;;;;;;;6.80;4.70;;;;;;;;;;5049441;28;20205;-79
2023/06/22 13:55:15;;;;;;;6.78;4.90;;;;;;;;;;5046923;28;20189;-79
2023/06/22 13:57:41;;;;;;;6.40;4.35;;;;;;;;;;5056511;28;20185;-79
2023/06/22 14:00:08;;;;;;;6.85;4.20;;;;;;;;;;5056618;28;20276;-79
2023/06/22 14:02:41;;;;;;;7.68;4.60;;;;;;;;;;5056601;28;20199;-80
2023/06/22 14:05:07;;;;;;;10.45;4.60;;;;;;;;;;5052146;28;20688;-81
2023/06/22 14:07:34;;;;;;;10.35;5.03;;;;;;;;;;5055928;28;20331;-79
2023/06/22 14:10:00;;;;;;;6.77;5.10;;;;;;;;;;5056248;28;20197;-80
2023/06/22 14:12:26;;;;;;;7.50;4.73;;;;;;;;;;5043168;28;20201;-79
2023/06/22 14:14:52;;;;;;;7.30;4.73;;;;;;;;;;5037875;28;20512;-79
2023/06/22 14:17:23;;;;;;;9.50;4.80;;;;;;;;;;5055385;28;20257;-79
2023/06/22 14:19:52;;;;;;;7.77;5.03;;;;;;;;;;5051155;28;20219;-76
2023/06/22 14:22:19;;;;;;;8.50;5.07;;;;;;;;;;5032906;28;20781;-78
2023/06/22 14:24:46;;;;;;;8.53;4.73;;;;;;;;;;5055174;28;20225;-78
2023/06/22 14:27:12;;;;;;;9.30;5.20;;;;;;;;;;5052028;28;20182;-77
2023/06/22 14:29:38;;;;;;;8.47;5.20;;;;;;;;;;5054520;28;20175;-80
2023/06/22 14:32:06;;;;;;;7.60;5.10;;;;;;;;;;5046174;28;20193;-78
2023/06/22 14:34:32;;;;;;;9.70;5.03;;;;;;;;;;5043589;28;20189;-77
2023/06/22 14:36:59;;;;;;;7.77;4.93;;;;;;;;;;5054124;28;20504;-77
2023/06/22 14:39:25;;;;;;;9.53;5.20;;;;;;;;;;5054054;28;20197;-77